sensor_id;sensor_type;location;lat;lon;timestamp;P1;durP1;ratioP1;P2;durP2;ratioP2
10661;SDS011;5379;51.034;7.006;2024-01-27T00:00:35;2.97;;;2.47;;
10661;SDS011;5379;51.034;7.006;2024-01-27T00:03:02;9.27;;;3.00;;
10661;SDS011;5379;51.034;7.006;2024-01-27T00:05:30;9.57;;;2.90;;
10661;SDS011;5379;51.034;7.006;2024-01-27T00:07:57;5.47;;;3.03;;
10661;SDS011;5379;51.034;7.006;2024-01-27T00:10:23;8.73;;;3.10;;
10661;SDS011;5379;51.034;7.006;2024-01-27T00:12:51;9.43;;;2.47;;
10661;SDS011;5379;51.034;7.006;2024-01-27T00:15:17;6.77;;;2.57;;
10661;SDS011;5379;51.034;7.006;2024-01-27T00:17:44;2.60;;;2.20;;
10661;SDS011;5379;51.034;7.006;2024-01-27T00:20:11;4.37;;;2.70;;
10661;SDS011;5379;51.034;7.006;2024-01-27T00:22:39;4.50;;;2.83;;
10661;SDS011;5379;51.034;7.006;2024-01-27T00:25:06;6.07;;;2.97;;
10661;SDS011;5379;51.034;7.006;2024-01-27T00:27:33;4.13;;;2.63;;
10661;SDS011;5379;51.034;7.006;2024-01-27T00:30:00;4.53;;;2.73;;
10661;SDS011;5379;51.034;7.006;2024-01-27T00:32:27;3.90;;;2.33;;
10661;SDS011;5379;51.034;7.006;2024-01-27T00:34:56;4.03;;;2.30;;
10661;SDS011;5379;51.034;7.006;2024-01-27T00:37:23;4.73;;;2.37;;
10661;SDS011;5379;51.034;7.006;2024-01-27T00:39:52;4.60;;;2.20;;
10661;SDS011;5379;51.034;7.006;2024-01-27T00:42:18;7.33;;;3.03;;
10661;SDS011;5379;51.034;7.006;2024-01-27T00:44:49;5.50;;;2.87;;
10661;SDS011;5379;51.034;7.006;2024-01-27T00:47:16;4.47;;;2.10;;
10661;SDS011;5379;51.034;7.006;2024-01-27T00:49:42;10.57;;;3.23;;
10661;SDS011;5379;51.034;7.006;2024-01-27T00:52:09;5.30;;;2.53;;
10661;SDS011;5379;51.034;7.006;2024-01-27T00:54:36;12.80;;;2.50;;
10661;SDS011;5379;51.034;7.006;2024-01-27T00:57:04;3.20;;;2.40;;
10661;SDS011;5379;51.034;7.006;2024-01-27T00:59:31;5.50;;;2.83;;
10661;SDS011;5379;51.034;7.006;2024-01-27T05:32:40;4.77;;;2.73;;
10661;SDS011;5379;51.034;7.006;2024-01-27T05:35:07;16.47;;;4.67;;
10661;SDS011;5379;51.034;7.006;2024-01-27T05:37:35;4.07;;;3.13;;
10661;SDS011;5379;51.034;7.006;2024-01-27T05:40:04;6.67;;;2.80;;
10661;SDS011;5379;51.034;7.006;2024-01-27T05:42:32;2.90;;;2.60;;
10661;SDS011;5379;51.034;7.006;2024-01-27T05:44:58;8.40;;;2.80;;
10661;SDS011;5379;51.034;7.006;2024-01-27T05:47:25;7.80;;;3.37;;
10661;SDS011;5379;51.034;7.006;2024-01-27T05:49:53;5.37;;;2.93;;
10661;SDS011;5379;51.034;7.006;2024-01-27T05:52:20;6.13;;;2.93;;
10661;SDS011;5379;51.034;7.006;2024-01-27T05:54:47;4.60;;;3.10;;
10661;SDS011;5379;51.034;7.006;2024-01-27T05:57:13;9.03;;;2.67;;
10661;SDS011;5379;51.034;7.006;2024-01-27T05:59:40;4.77;;;2.83;;
10661;SDS011;5379;51.034;7.006;2024-01-27T06:02:07;7.50;;;3.60;;
10661;SDS011;5379;51.034;7.006;2024-01-27T06:04:34;5.17;;;3.00;;
10661;SDS011;5379;51.034;7.006;2024-01-27T06:07:02;8.10;;;2.60;;
10661;SDS011;5379;51.034;7.006;2024-01-27T06:09:29;5.43;;;2.77;;
10661;SDS011;5379;51.034;7.006;2024-01-27T06:11:57;6.13;;;3.07;;
10661;SDS011;5379;51.034;7.006;2024-01-27T06:14:25;4.87;;;3.03;;
10661;SDS011;5379;51.034;7.006;2024-01-27T06:16:51;5.90;;;3.10;;
10661;SDS011;5379;51.034;7.006;2024-01-27T06:19:18;7.87;;;3.53;;
10661;SDS011;5379;51.034;7.006;2024-01-27T06:21:45;3.30;;;2.67;;
10661;SDS011;5379;51.034;7.006;2024-01-27T06:24:13;16.73;;;2.63;;
10661;SDS011;5379;51.034;7.006;2024-01-27T06:26:40;3.47;;;2.90;;
10661;SDS011;5379;51.034;7.006;2024-01-27T06:29:06;6.27;;;3.07;;
10661;SDS011;5379;51.034;7.006;2024-01-27T06:31:33;10.40;;;2.97;;
10661;SDS011;5379;51.034;7.006;2024-01-27T06:34:00;3.97;;;2.97;;
10661;SDS011;5379;51.034;7.006;2024-01-27T06:36:27;5.27;;;3.50;;
10661;SDS011;5379;51.034;7.006;2024-01-27T06:38:53;7.37;;;3.03;;
10661;SDS011;5379;51.034;7.006;2024-01-27T06:41:22;6.17;;;3.23;;
10661;SDS011;5379;51.034;7.006;2024-01-27T06:43:48;5.33;;;3.03;;
10661;SDS011;5379;51.034;7.006;2024-01-27T06:46:15;6.40;;;3.30;;
10661;SDS011;5379;51.034;7.006;2024-01-27T06:48:42;8.10;;;3.33;;
10661;SDS011;5379;51.034;7.006;2024-01-27T06:51:08;5.97;;;3.23;;
10661;SDS011;5379;51.034;7.006;2024-01-27T06:53:35;5.07;;;3.53;;
10661;SDS011;5379;51.034;7.006;2024-01-27T06:56:02;5.37;;;3.20;;
10661;SDS011;5379;51.034;7.006;2024-01-27T06:58:31;5.20;;;3.00;;
10661;SDS011;5379;51.034;7.006;2024-01-27T07:00:57;4.40;;;2.87;;
10661;SDS011;5379;51.034;7.006;2024-01-27T07:03:24;4.77;;;3.20;;
10661;SDS011;5379;51.034;7.006;2024-01-27T07:05:51;12.43;;;3.67;;
10661;SDS011;5379;51.034;7.006;2024-01-27T07:08:17;5.70;;;3.10;;
10661;SDS011;5379;51.034;7.006;2024-01-27T07:10:44;8.70;;;2.97;;
10661;SDS011;5379;51.034;7.006;2024-01-27T07:13:11;7.10;;;2.60;;
10661;SDS011;5379;51.034;7.006;2024-01-27T07:15:39;14.07;;;2.83;;
10661;SDS011;5379;51.034;7.006;2024-01-27T07:18:06;4.33;;;2.53;;
10661;SDS011;5379;51.034;7.006;2024-01-27T07:20:34;5.97;;;2.57;;
10661;SDS011;5379;51.034;7.006;2024-01-27T07:23:01;6.90;;;2.67;;
10661;SDS011;5379;51.034;7.006;2024-01-27T07:25:28;3.73;;;2.80;;
10661;SDS011;5379;51.034;7.006;2024-01-27T07:27:54;5.93;;;3.10;;
10661;SDS011;5379;51.034;7.006;2024-01-27T07:30:21;3.97;;;2.50;;
10661;SDS011;5379;51.034;7.006;2024-01-27T07:32:49;5.93;;;2.80;;
10661;SDS011;5379;51.034;7.006;2024-01-27T07:35:16;6.30;;;2.83;;
10661;SDS011;5379;51.034;7.006;2024-01-27T07:37:43;3.57;;;2.70;;
10661;SDS011;5379;51.034;7.006;2024-01-27T07:40:10;2.93;;;2.63;;
10661;SDS011;5379;51.034;7.006;2024-01-27T07:42:38;3.30;;;2.30;;
10661;SDS011;5379;51.034;7.006;2024-01-27T07:45:05;6.07;;;3.17;;
10661;SDS011;5379;51.034;7.006;2024-01-27T07:47:33;5.83;;;3.03;;
10661;SDS011;5379;51.034;7.006;2024-01-27T07:50:02;6.00;;;2.93;;
10661;SDS011;5379;51.034;7.006;2024-01-27T07:52:29;4.30;;;2.83;;
10661;SDS011;5379;51.034;7.006;2024-01-27T07:54:56;4.20;;;2.40;;
10661;SDS011;5379;51.034;7.006;2024-01-27T07:57:23;11.17;;;3.53;;
10661;SDS011;5379;51.034;7.006;2024-01-27T07:59:50;4.07;;;2.60;;
10661;SDS011;5379;51.034;7.006;2024-01-27T08:02:17;4.20;;;3.37;;
10661;SDS011;5379;51.034;7.006;2024-01-27T08:04:44;3.80;;;2.50;;
10661;SDS011;5379;51.034;7.006;2024-01-27T08:07:12;4.17;;;2.43;;
10661;SDS011;5379;51.034;7.006;2024-01-27T08:09:42;2.73;;;2.50;;
10661;SDS011;5379;51.034;7.006;2024-01-27T08:12:09;24.20;;;3.00;;
10661;SDS011;5379;51.034;7.006;2024-01-27T08:14:35;9.70;;;3.47;;
10661;SDS011;5379;51.034;7.006;2024-01-27T08:17:03;25.33;;;4.00;;
10661;SDS011;5379;51.034;7.006;2024-01-27T08:19:30;9.77;;;4.60;;
10661;SDS011;5379;51.034;7.006;2024-01-27T08:21:57;4.97;;;3.97;;
10661;SDS011;5379;51.034;7.006;2024-01-27T08:24:25;7.73;;;5.10;;
10661;SDS011;5379;51.034;7.006;2024-01-27T08:26:52;7.80;;;4.50;;
10661;SDS011;5379;51.034;7.006;2024-01-27T08:29:19;4.30;;;3.90;;
10661;SDS011;5379;51.034;7.006;2024-01-27T08:31:45;7.67;;;4.23;;
10661;SDS011;5379;51.034;7.006;2024-01-27T08:34:12;5.20;;;3.00;;
10661;SDS011;5379;51.034;7.006;2024-01-27T08:36:39;8.13;;;2.80;;
10661;SDS011;5379;51.034;7.006;2024-01-27T08:39:06;8.70;;;2.93;;
10661;SDS011;5379;51.034;7.006;2024-01-27T08:41:35;12.90;;;2.87;;
10661;SDS011;5379;51.034;7.006;2024-01-27T08:44:02;12.23;;;2.80;;
10661;SDS011;5379;51.034;7.006;2024-01-27T08:46:28;2.33;;;2.20;;
10661;SDS011;5379;51.034;7.006;2024-01-27T08:48:55;5.17;;;2.67;;
10661;SDS011;5379;51.034;7.006;2024-01-27T08:51:22;5.97;;;2.93;;
10661;SDS011;5379;51.034;7.006;2024-01-27T08:53:48;4.37;;;2.63;;
10661;SDS011;5379;51.034;7.006;2024-01-27T08:56:14;11.00;;;2.63;;
10661;SDS011;5379;51.034;7.006;2024-01-27T08:58:44;7.50;;;2.60;;
10661;SDS011;5379;51.034;7.006;2024-01-27T09:01:12;5.03;;;2.47;;
10661;SDS011;5379;51.034;7.006;2024-01-27T09:03:41;4.27;;;2.47;;
10661;SDS011;5379;51.034;7.006;2024-01-27T09:06:08;10.20;;;3.13;;
10661;SDS011;5379;51.034;7.006;2024-01-27T09:08:35;7.20;;;3.03;;
10661;SDS011;5379;51.034;7.006;2024-01-27T09:11:02;3.10;;;2.77;;
10661;SDS011;5379;51.034;7.006;2024-01-27T09:13:30;2.33;;;2.10;;
10661;SDS011;5379;51.034;7.006;2024-01-27T09:15:58;2.73;;;2.33;;
10661;SDS011;5379;51.034;7.006;2024-01-27T09:18:25;2.97;;;2.30;;
10661;SDS011;5379;51.034;7.006;2024-01-27T09:20:52;1.90;;;1.80;;
10661;SDS011;5379;51.034;7.006;2024-01-27T09:23:19;21.07;;;2.60;;
10661;SDS011;5379;51.034;7.006;2024-01-27T09:25:46;3.43;;;2.47;;
10661;SDS011;5379;51.034;7.006;2024-01-27T09:28:12;5.60;;;2.77;;
10661;SDS011;5379;51.034;7.006;2024-01-27T09:30:41;3.90;;;2.87;;
10661;SDS011;5379;51.034;7.006;2024-01-27T09:33:09;3.93;;;2.50;;
10661;SDS011;5379;51.034;7.006;2024-01-27T09:35:36;5.60;;;2.70;;
10661;SDS011;5379;51.034;7.006;2024-01-27T09:38:03;3.27;;;2.23;;
10661;SDS011;5379;51.034;7.006;2024-01-27T09:40:30;7.43;;;3.40;;
10661;SDS011;5379;51.034;7.006;2024-01-27T09:42:57;3.07;;;2.13;;
10661;SDS011;5379;51.034;7.006;2024-01-27T09:45:25;4.87;;;2.30;;
10661;SDS011;5379;51.034;7.006;2024-01-27T09:47:53;6.63;;;2.53;;
10661;SDS011;5379;51.034;7.006;2024-01-27T09:50:23;2.33;;;2.13;;
10661;SDS011;5379;51.034;7.006;2024-01-27T09:52:50;4.90;;;2.73;;
10661;SDS011;5379;51.034;7.006;2024-01-27T09:55:17;2.70;;;2.03;;
10661;SDS011;5379;51.034;7.006;2024-01-27T09:57:44;11.23;;;2.97;;
10661;SDS011;5379;51.034;7.006;2024-01-27T10:00:12;2.47;;;2.13;;
10661;SDS011;5379;51.034;7.006;2024-01-27T10:02:41;2.77;;;2.27;;
10661;SDS011;5379;51.034;7.006;2024-01-27T10:05:09;5.73;;;2.73;;
10661;SDS011;5379;51.034;7.006;2024-01-27T10:07:37;2.50;;;2.23;;
10661;SDS011;5379;51.034;7.006;2024-01-27T10:10:06;2.97;;;2.20;;
10661;SDS011;5379;51.034;7.006;2024-01-27T10:12:34;3.87;;;2.33;;
10661;SDS011;5379;51.034;7.006;2024-01-27T10:15:07;3.87;;;2.10;;
10661;SDS011;5379;51.034;7.006;2024-01-27T10:17:47;2.23;;;1.97;;
10661;SDS011;5379;51.034;7.006;2024-01-27T10:20:14;4.90;;;2.50;;
10661;SDS011;5379;51.034;7.006;2024-01-27T10:22:45;2.83;;;2.20;;
10661;SDS011;5379;51.034;7.006;2024-01-27T10:25:15;2.47;;;2.27;;
10661;SDS011;5379;51.034;7.006;2024-01-27T10:27:42;7.27;;;2.00;;
10661;SDS011;5379;51.034;7.006;2024-01-27T10:30:14;4.40;;;2.27;;
10661;SDS011;5379;51.034;7.006;2024-01-27T10:32:43;2.60;;;2.13;;
10661;SDS011;5379;51.034;7.006;2024-01-27T10:35:10;5.03;;;2.33;;
10661;SDS011;5379;51.034;7.006;2024-01-27T10:37:37;5.63;;;3.00;;
10661;SDS011;5379;51.034;7.006;2024-01-27T10:40:06;2.73;;;2.43;;
10661;SDS011;5379;51.034;7.006;2024-01-27T10:42:34;2.17;;;1.90;;
10661;SDS011;5379;51.034;7.006;2024-01-27T10:45:02;4.43;;;2.23;;
10661;SDS011;5379;51.034;7.006;2024-01-27T10:47:29;3.57;;;2.57;;
10661;SDS011;5379;51.034;7.006;2024-01-27T10:49:58;18.20;;;3.33;;
10661;SDS011;5379;51.034;7.006;2024-01-27T10:52:28;4.17;;;3.00;;
10661;SDS011;5379;51.034;7.006;2024-01-27T10:54:57;4.57;;;3.20;;
10661;SDS011;5379;51.034;7.006;2024-01-27T10:57:27;10.43;;;2.47;;
10661;SDS011;5379;51.034;7.006;2024-01-27T10:59:55;2.20;;;1.83;;
10661;SDS011;5379;51.034;7.006;2024-01-27T11:02:23;2.77;;;2.43;;
10661;SDS011;5379;51.034;7.006;2024-01-27T11:04:51;9.03;;;2.70;;
10661;SDS011;5379;51.034;7.006;2024-01-27T11:07:19;4.23;;;2.67;;
10661;SDS011;5379;51.034;7.006;2024-01-27T11:09:48;3.17;;;2.47;;
10661;SDS011;5379;51.034;7.006;2024-01-27T11:12:17;7.67;;;3.10;;
10661;SDS011;5379;51.034;7.006;2024-01-27T11:14:47;3.47;;;2.30;;
10661;SDS011;5379;51.034;7.006;2024-01-27T11:17:14;5.47;;;2.53;;
10661;SDS011;5379;51.034;7.006;2024-01-27T11:19:41;5.00;;;2.57;;
10661;SDS011;5379;51.034;7.006;2024-01-27T11:22:17;5.20;;;2.40;;
10661;SDS011;5379;51.034;7.006;2024-01-27T11:24:51;2.90;;;2.30;;
10661;SDS011;5379;51.034;7.006;2024-01-27T11:27:18;4.00;;;2.30;;
10661;SDS011;5379;51.034;7.006;2024-01-27T11:29:47;10.53;;;3.00;;
10661;SDS011;5379;51.034;7.006;2024-01-27T11:32:15;3.47;;;1.90;;
10661;SDS011;5379;51.034;7.006;2024-01-27T11:34:42;2.40;;;2.20;;
10661;SDS011;5379;51.034;7.006;2024-01-27T11:37:10;3.33;;;2.70;;
10661;SDS011;5379;51.034;7.006;2024-01-27T11:39:38;3.77;;;2.70;;
10661;SDS011;5379;51.034;7.006;2024-01-27T11:42:05;2.93;;;2.23;;
10661;SDS011;5379;51.034;7.006;2024-01-27T11:44:33;2.57;;;2.30;;
10661;SDS011;5379;51.034;7.006;2024-01-27T11:47:02;2.20;;;2.00;;
10661;SDS011;5379;51.034;7.006;2024-01-27T11:49:29;2.70;;;2.50;;
10661;SDS011;5379;51.034;7.006;2024-01-27T11:51:56;2.40;;;2.20;;
10661;SDS011;5379;51.034;7.006;2024-01-27T11:54:23;14.77;;;2.27;;
10661;SDS011;5379;51.034;7.006;2024-01-27T11:56:50;2.20;;;2.00;;
10661;SDS011;5379;51.034;7.006;2024-01-27T11:59:17;3.43;;;1.97;;
10661;SDS011;5379;51.034;7.006;2024-01-27T12:01:44;4.20;;;2.73;;
10661;SDS011;5379;51.034;7.006;2024-01-27T12:04:12;3.87;;;2.77;;
10661;SDS011;5379;51.034;7.006;2024-01-27T12:06:40;2.13;;;2.00;;
10661;SDS011;5379;51.034;7.006;2024-01-27T12:09:06;2.40;;;2.10;;
10661;SDS011;5379;51.034;7.006;2024-01-27T12:11:37;3.70;;;2.10;;
10661;SDS011;5379;51.034;7.006;2024-01-27T12:14:05;4.70;;;2.57;;
10661;SDS011;5379;51.034;7.006;2024-01-27T12:16:31;1.90;;;1.80;;
10661;SDS011;5379;51.034;7.006;2024-01-27T12:18:58;4.33;;;1.93;;
10661;SDS011;5379;51.034;7.006;2024-01-27T12:21:27;7.13;;;2.43;;
10661;SDS011;5379;51.034;7.006;2024-01-27T12:23:54;3.40;;;1.90;;
10661;SDS011;5379;51.034;7.006;2024-01-27T12:26:22;3.03;;;2.23;;
10661;SDS011;5379;51.034;7.006;2024-01-27T12:28:51;3.40;;;2.70;;
10661;SDS011;5379;51.034;7.006;2024-01-27T12:31:18;2.40;;;2.20;;
10661;SDS011;5379;51.034;7.006;2024-01-27T12:33:48;4.47;;;2.73;;
10661;SDS011;5379;51.034;7.006;2024-01-27T12:36:16;5.90;;;2.23;;
10661;SDS011;5379;51.034;7.006;2024-01-27T12:38:47;5.43;;;2.60;;
10661;SDS011;5379;51.034;7.006;2024-01-27T12:41:19;1.87;;;1.77;;
10661;SDS011;5379;51.034;7.006;2024-01-27T12:43:46;2.40;;;1.97;;
10661;SDS011;5379;51.034;7.006;2024-01-27T12:46:12;1.97;;;1.83;;
10661;SDS011;5379;51.034;7.006;2024-01-27T12:48:40;3.60;;;2.50;;
10661;SDS011;5379;51.034;7.006;2024-01-27T12:51:07;3.03;;;2.13;;
10661;SDS011;5379;51.034;7.006;2024-01-27T12:53:34;13.33;;;2.80;;
10661;SDS011;5379;51.034;7.006;2024-01-27T12:56:02;3.57;;;2.67;;
10661;SDS011;5379;51.034;7.006;2024-01-27T12:58:29;16.13;;;2.80;;
10661;SDS011;5379;51.034;7.006;2024-01-27T13:00:56;6.60;;;2.40;;
10661;SDS011;5379;51.034;7.006;2024-01-27T13:03:23;1.83;;;1.73;;
10661;SDS011;5379;51.034;7.006;2024-01-27T13:05:50;7.67;;;2.40;;
10661;SDS011;5379;51.034;7.006;2024-01-27T13:08:17;2.53;;;2.33;;
10661;SDS011;5379;51.034;7.006;2024-01-27T13:10:43;5.87;;;2.93;;
10661;SDS011;5379;51.034;7.006;2024-01-27T13:13:11;4.13;;;2.93;;
10661;SDS011;5379;51.034;7.006;2024-01-27T13:15:38;4.00;;;2.60;;
10661;SDS011;5379;51.034;7.006;2024-01-27T13:18:05;4.03;;;2.10;;
10661;SDS011;5379;51.034;7.006;2024-01-27T13:20:32;4.10;;;2.37;;
10661;SDS011;5379;51.034;7.006;2024-01-27T13:22:59;3.37;;;2.10;;
10661;SDS011;5379;51.034;7.006;2024-01-27T13:25:26;6.47;;;2.30;;
10661;SDS011;5379;51.034;7.006;2024-01-27T13:27:53;3.60;;;2.40;;
10661;SDS011;5379;51.034;7.006;2024-01-27T13:30:22;10.60;;;2.13;;
10661;SDS011;5379;51.034;7.006;2024-01-27T13:32:49;7.40;;;2.33;;
10661;SDS011;5379;51.034;7.006;2024-01-27T13:35:15;5.83;;;2.17;;
10661;SDS011;5379;51.034;7.006;2024-01-27T13:37:42;6.03;;;2.73;;
10661;SDS011;5379;51.034;7.006;2024-01-27T13:40:11;2.53;;;1.80;;
10661;SDS011;5379;51.034;7.006;2024-01-27T13:42:38;3.97;;;2.30;;
10661;SDS011;5379;51.034;7.006;2024-01-27T13:45:05;2.40;;;2.20;;
10661;SDS011;5379;51.034;7.006;2024-01-27T13:47:35;2.57;;;2.20;;
10661;SDS011;5379;51.034;7.006;2024-01-27T13:50:02;2.43;;;2.13;;
10661;SDS011;5379;51.034;7.006;2024-01-27T13:52:29;4.67;;;2.50;;
10661;SDS011;5379;51.034;7.006;2024-01-27T13:54:56;3.17;;;2.10;;
10661;SDS011;5379;51.034;7.006;2024-01-27T13:57:23;2.20;;;1.93;;
10661;SDS011;5379;51.034;7.006;2024-01-27T13:59:49;3.90;;;2.27;;
10661;SDS011;5379;51.034;7.006;2024-01-27T14:02:16;2.63;;;2.13;;
10661;SDS011;5379;51.034;7.006;2024-01-27T14:04:44;2.20;;;1.87;;
10661;SDS011;5379;51.034;7.006;2024-01-27T14:07:11;11.83;;;2.53;;
10661;SDS011;5379;51.034;7.006;2024-01-27T14:09:38;6.47;;;2.43;;
10661;SDS011;5379;51.034;7.006;2024-01-27T14:12:05;2.00;;;1.80;;
10661;SDS011;5379;51.034;7.006;2024-01-27T14:14:32;5.23;;;2.47;;
10661;SDS011;5379;51.034;7.006;2024-01-27T14:17:01;3.87;;;2.07;;
10661;SDS011;5379;51.034;7.006;2024-01-27T14:19:28;2.93;;;2.40;;
10661;SDS011;5379;51.034;7.006;2024-01-27T14:21:56;8.43;;;2.30;;
10661;SDS011;5379;51.034;7.006;2024-01-27T14:24:23;1.77;;;1.67;;
10661;SDS011;5379;51.034;7.006;2024-01-27T14:26:50;19.50;;;2.87;;
10661;SDS011;5379;51.034;7.006;2024-01-27T14:29:17;6.97;;;2.90;;
10661;SDS011;5379;51.034;7.006;2024-01-27T14:31:44;4.00;;;2.27;;
10661;SDS011;5379;51.034;7.006;2024-01-27T14:34:11;15.40;;;2.57;;
10661;SDS011;5379;51.034;7.006;2024-01-27T14:36:38;4.13;;;2.40;;
10661;SDS011;5379;51.034;7.006;2024-01-27T14:39:07;6.83;;;2.67;;
10661;SDS011;5379;51.034;7.006;2024-01-27T14:41:35;1.97;;;1.87;;
10661;SDS011;5379;51.034;7.006;2024-01-27T14:44:02;8.93;;;2.40;;
10661;SDS011;5379;51.034;7.006;2024-01-27T14:46:29;1.97;;;1.83;;
10661;SDS011;5379;51.034;7.006;2024-01-27T14:48:56;2.30;;;1.83;;
10661;SDS011;5379;51.034;7.006;2024-01-27T14:51:23;3.67;;;2.50;;
10661;SDS011;5379;51.034;7.006;2024-01-27T14:53:50;5.00;;;2.43;;
10661;SDS011;5379;51.034;7.006;2024-01-27T14:56:18;9.47;;;1.90;;
10661;SDS011;5379;51.034;7.006;2024-01-27T14:58:44;4.13;;;3.73;;
10661;SDS011;5379;51.034;7.006;2024-01-27T15:01:16;2.53;;;2.20;;
10661;SDS011;5379;51.034;7.006;2024-01-27T15:03:43;5.27;;;2.07;;
10661;SDS011;5379;51.034;7.006;2024-01-27T15:06:10;5.63;;;2.80;;
10661;SDS011;5379;51.034;7.006;2024-01-27T15:08:36;8.23;;;2.73;;
10661;SDS011;5379;51.034;7.006;2024-01-27T15:11:03;4.93;;;1.83;;
10661;SDS011;5379;51.034;7.006;2024-01-27T15:13:31;4.47;;;2.30;;
10661;SDS011;5379;51.034;7.006;2024-01-27T15:15:58;5.97;;;2.57;;
10661;SDS011;5379;51.034;7.006;2024-01-27T15:18:25;3.27;;;2.07;;
10661;SDS011;5379;51.034;7.006;2024-01-27T15:20:52;4.47;;;2.60;;
10661;SDS011;5379;51.034;7.006;2024-01-27T15:23:19;4.03;;;2.73;;
10661;SDS011;5379;51.034;7.006;2024-01-27T15:25:50;6.23;;;1.83;;
10661;SDS011;5379;51.034;7.006;2024-01-27T15:28:17;2.10;;;1.97;;
10661;SDS011;5379;51.034;7.006;2024-01-27T15:30:45;3.00;;;2.63;;
10661;SDS011;5379;51.034;7.006;2024-01-27T15:33:13;4.93;;;3.60;;
10661;SDS011;5379;51.034;7.006;2024-01-27T15:35:40;2.40;;;2.20;;
10661;SDS011;5379;51.034;7.006;2024-01-27T15:38:07;2.30;;;2.10;;
10661;SDS011;5379;51.034;7.006;2024-01-27T15:40:34;11.27;;;2.73;;
10661;SDS011;5379;51.034;7.006;2024-01-27T15:43:01;19.87;;;2.67;;
10661;SDS011;5379;51.034;7.006;2024-01-27T15:45:28;5.93;;;2.43;;
10661;SDS011;5379;51.034;7.006;2024-01-27T15:47:56;5.50;;;1.80;;
10661;SDS011;5379;51.034;7.006;2024-01-27T15:50:24;2.53;;;2.07;;
10661;SDS011;5379;51.034;7.006;2024-01-27T15:52:53;2.03;;;1.93;;
10661;SDS011;5379;51.034;7.006;2024-01-27T15:55:19;12.60;;;2.40;;
10661;SDS011;5379;51.034;7.006;2024-01-27T15:57:46;3.93;;;1.90;;
10661;SDS011;5379;51.034;7.006;2024-01-27T16:00:13;6.23;;;2.83;;
10661;SDS011;5379;51.034;7.006;2024-01-27T16:02:41;6.33;;;3.73;;
10661;SDS011;5379;51.034;7.006;2024-01-27T16:05:09;6.60;;;3.30;;
10661;SDS011;5379;51.034;7.006;2024-01-27T16:07:36;24.03;;;3.13;;
10661;SDS011;5379;51.034;7.006;2024-01-27T16:10:03;3.63;;;2.97;;
10661;SDS011;5379;51.034;7.006;2024-01-27T16:12:32;8.33;;;3.57;;
10661;SDS011;5379;51.034;7.006;2024-01-27T16:14:59;12.80;;;5.87;;
10661;SDS011;5379;51.034;7.006;2024-01-27T16:17:26;7.40;;;4.20;;
10661;SDS011;5379;51.034;7.006;2024-01-27T16:19:53;4.43;;;3.77;;
10661;SDS011;5379;51.034;7.006;2024-01-27T16:22:21;7.37;;;2.90;;
10661;SDS011;5379;51.034;7.006;2024-01-27T16:24:48;9.27;;;3.13;;
10661;SDS011;5379;51.034;7.006;2024-01-27T16:27:16;4.53;;;3.70;;
10661;SDS011;5379;51.034;7.006;2024-01-27T16:29:45;4.53;;;2.80;;
10661;SDS011;5379;51.034;7.006;2024-01-27T16:32:12;7.77;;;3.73;;
10661;SDS011;5379;51.034;7.006;2024-01-27T16:34:42;6.80;;;3.47;;
10661;SDS011;5379;51.034;7.006;2024-01-27T16:37:09;6.13;;;3.27;;
10661;SDS011;5379;51.034;7.006;2024-01-27T16:39:37;9.87;;;3.47;;
10661;SDS011;5379;51.034;7.006;2024-01-27T16:42:04;2.97;;;2.67;;
10661;SDS011;5379;51.034;7.006;2024-01-27T16:44:31;3.60;;;2.67;;
10661;SDS011;5379;51.034;7.006;2024-01-27T16:46:57;2.80;;;2.60;;
10661;SDS011;5379;51.034;7.006;2024-01-27T16:49:24;15.80;;;3.60;;
10661;SDS011;5379;51.034;7.006;2024-01-27T16:51:51;4.57;;;3.27;;
10661;SDS011;5379;51.034;7.006;2024-01-27T16:54:18;19.37;;;3.53;;
10661;SDS011;5379;51.034;7.006;2024-01-27T16:56:47;11.67;;;4.20;;
10661;SDS011;5379;51.034;7.006;2024-01-27T16:59:14;9.23;;;3.97;;
10661;SDS011;5379;51.034;7.006;2024-01-27T17:01:41;6.20;;;3.40;;
10661;SDS011;5379;51.034;7.006;2024-01-27T17:04:08;5.00;;;4.50;;
10661;SDS011;5379;51.034;7.006;2024-01-27T17:06:39;8.77;;;4.17;;
10661;SDS011;5379;51.034;7.006;2024-01-27T17:09:06;11.73;;;4.00;;
10661;SDS011;5379;51.034;7.006;2024-01-27T17:11:32;4.93;;;3.63;;
10661;SDS011;5379;51.034;7.006;2024-01-27T17:14:01;12.70;;;4.47;;
10661;SDS011;5379;51.034;7.006;2024-01-27T17:16:27;5.73;;;3.63;;
10661;SDS011;5379;51.034;7.006;2024-01-27T17:18:54;6.73;;;4.53;;
10661;SDS011;5379;51.034;7.006;2024-01-27T17:21:21;6.97;;;4.67;;
10661;SDS011;5379;51.034;7.006;2024-01-27T17:23:48;5.33;;;4.50;;
10661;SDS011;5379;51.034;7.006;2024-01-27T17:26:14;9.97;;;5.20;;
10661;SDS011;5379;51.034;7.006;2024-01-27T17:28:43;7.10;;;4.37;;
10661;SDS011;5379;51.034;7.006;2024-01-27T17:31:11;4.07;;;3.67;;
10661;SDS011;5379;51.034;7.006;2024-01-27T17:33:39;10.20;;;4.20;;
10661;SDS011;5379;51.034;7.006;2024-01-27T17:36:06;5.57;;;3.40;;
10661;SDS011;5379;51.034;7.006;2024-01-27T17:38:33;5.83;;;4.20;;
10661;SDS011;5379;51.034;7.006;2024-01-27T17:41:00;4.93;;;4.30;;
10661;SDS011;5379;51.034;7.006;2024-01-27T17:43:28;3.43;;;2.93;;
10661;SDS011;5379;51.034;7.006;2024-01-27T17:45:55;3.13;;;2.83;;
10661;SDS011;5379;51.034;7.006;2024-01-27T17:48:23;5.97;;;3.60;;
10661;SDS011;5379;51.034;7.006;2024-01-27T17:50:50;4.03;;;3.00;;
10661;SDS011;5379;51.034;7.006;2024-01-27T17:53:16;13.83;;;3.20;;
10661;SDS011;5379;51.034;7.006;2024-01-27T17:55:43;3.60;;;2.87;;
10661;SDS011;5379;51.034;7.006;2024-01-27T17:58:10;5.13;;;2.83;;
10661;SDS011;5379;51.034;7.006;2024-01-27T18:00:37;5.03;;;2.67;;
10661;SDS011;5379;51.034;7.006;2024-01-27T18:03:04;3.73;;;3.00;;
10661;SDS011;5379;51.034;7.006;2024-01-27T18:05:33;4.50;;;2.80;;
10661;SDS011;5379;51.034;7.006;2024-01-27T18:08:00;2.47;;;2.27;;
10661;SDS011;5379;51.034;7.006;2024-01-27T18:10:28;3.00;;;2.77;;
10661;SDS011;5379;51.034;7.006;2024-01-27T18:12:55;8.17;;;2.60;;
10661;SDS011;5379;51.034;7.006;2024-01-27T18:15:22;4.00;;;2.93;;
10661;SDS011;5379;51.034;7.006;2024-01-27T18:17:49;5.23;;;3.23;;
10661;SDS011;5379;51.034;7.006;2024-01-27T18:20:18;27.17;;;3.40;;
10661;SDS011;5379;51.034;7.006;2024-01-27T18:22:46;7.20;;;3.07;;
10661;SDS011;5379;51.034;7.006;2024-01-27T18:25:13;4.87;;;3.23;;
10661;SDS011;5379;51.034;7.006;2024-01-27T18:27:40;6.27;;;2.43;;
10661;SDS011;5379;51.034;7.006;2024-01-27T18:30:08;11.93;;;3.37;;
10661;SDS011;5379;51.034;7.006;2024-01-27T18:32:36;4.67;;;2.67;;
10661;SDS011;5379;51.034;7.006;2024-01-27T18:35:04;28.10;;;3.00;;
10661;SDS011;5379;51.034;7.006;2024-01-27T18:37:33;6.70;;;2.87;;
10661;SDS011;5379;51.034;7.006;2024-01-27T18:40:02;2.83;;;2.43;;
10661;SDS011;5379;51.034;7.006;2024-01-27T18:42:29;4.93;;;2.90;;
10661;SDS011;5379;51.034;7.006;2024-01-27T18:44:57;7.37;;;2.97;;
10661;SDS011;5379;51.034;7.006;2024-01-27T18:47:26;6.97;;;3.53;;
10661;SDS011;5379;51.034;7.006;2024-01-27T18:49:54;3.53;;;2.90;;
10661;SDS011;5379;51.034;7.006;2024-01-27T18:52:21;3.33;;;2.53;;
10661;SDS011;5379;51.034;7.006;2024-01-27T18:54:50;5.03;;;2.90;;
10661;SDS011;5379;51.034;7.006;2024-01-27T18:57:18;4.80;;;3.60;;
10661;SDS011;5379;51.034;7.006;2024-01-27T18:59:46;9.53;;;3.07;;
10661;SDS011;5379;51.034;7.006;2024-01-27T19:02:15;7.13;;;3.20;;
10661;SDS011;5379;51.034;7.006;2024-01-27T19:04:42;26.57;;;3.57;;
10661;SDS011;5379;51.034;7.006;2024-01-27T19:07:09;6.40;;;3.50;;
10661;SDS011;5379;51.034;7.006;2024-01-27T19:09:36;6.87;;;3.93;;
10661;SDS011;5379;51.034;7.006;2024-01-27T19:12:04;3.93;;;3.13;;
10661;SDS011;5379;51.034;7.006;2024-01-27T19:14:33;5.23;;;3.67;;
10661;SDS011;5379;51.034;7.006;2024-01-27T19:17:02;9.63;;;3.53;;
10661;SDS011;5379;51.034;7.006;2024-01-27T19:19:31;5.93;;;3.17;;
10661;SDS011;5379;51.034;7.006;2024-01-27T19:21:58;4.20;;;3.77;;
10661;SDS011;5379;51.034;7.006;2024-01-27T19:24:25;10.30;;;3.83;;
10661;SDS011;5379;51.034;7.006;2024-01-27T19:26:53;2.90;;;2.60;;
10661;SDS011;5379;51.034;7.006;2024-01-27T19:29:19;14.93;;;3.77;;
10661;SDS011;5379;51.034;7.006;2024-01-27T19:31:48;11.13;;;5.40;;